sensor_id;sensor_type;location;lat;lon;timestamp;temperature;humidity
5631;DHT22;2837;50.990;7.124;2022-07-29T05:02:12;19.90;99.90
5631;DHT22;2837;50.990;7.124;2022-07-29T05:04:38;20.00;99.90
5631;DHT22;2837;50.990;7.124;2022-07-29T05:07:03;20.00;99.90
5631;DHT22;2837;50.990;7.124;2022-07-29T05:09:29;20.00;99.90
5631;DHT22;2837;50.990;7.124;2022-07-29T05:11:54;19.90;99.90
5631;DHT22;2837;50.990;7.124;2022-07-29T05:16:48;20.00;99.90
5631;DHT22;2837;50.990;7.124;2022-07-29T05:19:16;20.00;99.90
5631;DHT22;2837;50.990;7.124;2022-07-29T05:21:42;20.00;99.90
5631;DHT22;2837;50.990;7.124;2022-07-29T05:24:07;20.00;99.90
5631;DHT22;2837;50.990;7.124;2022-07-29T05:26:33;20.00;99.90
5631;DHT22;2837;50.990;7.124;2022-07-29T05:28:58;20.10;99.90
5631;DHT22;2837;50.990;7.124;2022-07-29T05:31:24;20.00;99.90
5631;DHT22;2837;50.990;7.124;2022-07-29T05:33:50;20.10;99.90
5631;DHT22;2837;50.990;7.124;2022-07-29T05:36:15;20.10;99.90
5631;DHT22;2837;50.990;7.124;2022-07-29T05:38:41;20.10;99.90
5631;DHT22;2837;50.990;7.124;2022-07-29T05:41:06;20.10;99.90
5631;DHT22;2837;50.990;7.124;2022-07-29T05:43:32;20.10;99.90
5631;DHT22;2837;50.990;7.124;2022-07-29T05:45:58;20.10;99.90
5631;DHT22;2837;50.990;7.124;2022-07-29T05:48:24;20.10;99.90
5631;DHT22;2837;50.990;7.124;2022-07-29T05:50:49;20.20;99.90
5631;DHT22;2837;50.990;7.124;2022-07-29T05:53:15;20.20;99.90
5631;DHT22;2837;50.990;7.124;2022-07-29T05:55:41;20.20;99.90
5631;DHT22;2837;50.990;7.124;2022-07-29T05:58:07;20.20;99.90
5631;DHT22;2837;50.990;7.124;2022-07-29T06:00:32;20.20;99.90
5631;DHT22;2837;50.990;7.124;2022-07-29T06:02:58;20.20;99.90
5631;DHT22;2837;50.990;7.124;2022-07-29T06:05:23;20.20;99.90
5631;DHT22;2837;50.990;7.124;2022-07-29T06:07:49;20.30;99.90
5631;DHT22;2837;50.990;7.124;2022-07-29T06:10:14;20.30;99.90
5631;DHT22;2837;50.990;7.124;2022-07-29T06:12:40;20.30;99.90
5631;DHT22;2837;50.990;7.124;2022-07-29T06:15:06;20.40;99.90
5631;DHT22;2837;50.990;7.124;2022-07-29T06:17:31;20.40;99.90
5631;DHT22;2837;50.990;7.124;2022-07-29T06:19:57;20.40;99.90
5631;DHT22;2837;50.990;7.124;2022-07-29T06:22:23;20.40;99.90
5631;DHT22;2837;50.990;7.124;2022-07-29T06:24:49;20.50;99.90
5631;DHT22;2837;50.990;7.124;2022-07-29T06:27:14;20.50;99.90
5631;DHT22;2837;50.990;7.124;2022-07-29T06:29:40;20.50;99.90
5631;DHT22;2837;50.990;7.124;2022-07-29T06:32:05;20.50;99.90
5631;DHT22;2837;50.990;7.124;2022-07-29T06:34:31;20.60;99.90
5631;DHT22;2837;50.990;7.124;2022-07-29T06:36:57;20.60;99.90
5631;DHT22;2837;50.990;7.124;2022-07-29T06:39:22;20.60;99.90
5631;DHT22;2837;50.990;7.124;2022-07-29T06:41:49;20.60;99.90
5631;DHT22;2837;50.990;7.124;2022-07-29T06:44:15;20.60;99.90
5631;DHT22;2837;50.990;7.124;2022-07-29T06:46:41;20.60;99.90
5631;DHT22;2837;50.990;7.124;2022-07-29T06:49:06;20.60;99.90
5631;DHT22;2837;50.990;7.124;2022-07-29T06:51:32;20.70;99.90
5631;DHT22;2837;50.990;7.124;2022-07-29T06:53:59;20.70;99.90
5631;DHT22;2837;50.990;7.124;2022-07-29T06:56:24;20.70;99.90
5631;DHT22;2837;50.990;7.124;2022-07-29T06:58:50;20.70;99.90
5631;DHT22;2837;50.990;7.124;2022-07-29T07:01:16;20.70;99.90
5631;DHT22;2837;50.990;7.124;2022-07-29T07:03:41;20.70;99.90
5631;DHT22;2837;50.990;7.124;2022-07-29T07:06:07;20.70;99.90
5631;DHT22;2837;50.990;7.124;2022-07-29T07:08:33;20.70;99.90
5631;DHT22;2837;50.990;7.124;2022-07-29T07:10:59;20.70;99.90
5631;DHT22;2837;50.990;7.124;2022-07-29T07:13:25;20.70;99.90
5631;DHT22;2837;50.990;7.124;2022-07-29T07:15:51;20.70;99.90
5631;DHT22;2837;50.990;7.124;2022-07-29T07:18:17;20.80;99.90
5631;DHT22;2837;50.990;7.124;2022-07-29T07:20:43;20.70;99.90
5631;DHT22;2837;50.990;7.124;2022-07-29T07:23:09;20.80;99.90
5631;DHT22;2837;50.990;7.124;2022-07-29T07:25:35;20.80;99.90
5631;DHT22;2837;50.990;7.124;2022-07-29T07:28:01;20.80;99.90
5631;DHT22;2837;50.990;7.124;2022-07-29T07:30:27;20.80;99.90
5631;DHT22;2837;50.990;7.124;2022-07-29T07:32:53;20.80;99.90
5631;DHT22;2837;50.990;7.124;2022-07-29T07:35:19;20.90;99.90
5631;DHT22;2837;50.990;7.124;2022-07-29T07:37:45;20.90;99.90
5631;DHT22;2837;50.990;7.124;2022-07-29T07:40:11;20.90;99.90
5631;DHT22;2837;50.990;7.124;2022-07-29T07:42:38;20.90;99.90
5631;DHT22;2837;50.990;7.124;2022-07-29T07:45:04;20.90;99.90
5631;DHT22;2837;50.990;7.124;2022-07-29T07:47:31;20.90;99.90
5631;DHT22;2837;50.990;7.124;2022-07-29T07:49:57;21.00;99.90
5631;DHT22;2837;50.990;7.124;2022-07-29T07:52:22;21.00;99.90
5631;DHT22;2837;50.990;7.124;2022-07-29T07:54:48;21.00;99.90
5631;DHT22;2837;50.990;7.124;2022-07-29T07:57:15;21.10;99.90
5631;DHT22;2837;50.990;7.124;2022-07-29T07:59:41;21.00;99.90
5631;DHT22;2837;50.990;7.124;2022-07-29T08:02:08;21.10;99.90
5631;DHT22;2837;50.990;7.124;2022-07-29T08:04:34;21.10;99.90
5631;DHT22;2837;50.990;7.124;2022-07-29T08:07:01;21.10;99.90
5631;DHT22;2837;50.990;7.124;2022-07-29T08:09:28;21.10;99.90
5631;DHT22;2837;50.990;7.124;2022-07-29T08:11:54;21.20;99.90
5631;DHT22;2837;50.990;7.124;2022-07-29T08:14:20;21.20;99.90
5631;DHT22;2837;50.990;7.124;2022-07-29T08:16:45;21.20;99.90
5631;DHT22;2837;50.990;7.124;2022-07-29T08:19:11;21.20;99.90
5631;DHT22;2837;50.990;7.124;2022-07-29T08:21:37;21.20;99.90
5631;DHT22;2837;50.990;7.124;2022-07-29T08:24:03;21.20;99.90
5631;DHT22;2837;50.990;7.124;2022-07-29T08:26:47;21.20;99.90
5631;DHT22;2837;50.990;7.124;2022-07-29T08:29:14;21.10;99.90
5631;DHT22;2837;50.990;7.124;2022-07-29T08:31:40;21.20;99.90
5631;DHT22;2837;50.990;7.124;2022-07-29T08:34:06;21.20;99.90
5631;DHT22;2837;50.990;7.124;2022-07-29T08:36:33;21.20;99.90
5631;DHT22;2837;50.990;7.124;2022-07-29T08:38:59;21.10;99.90
5631;DHT22;2837;50.990;7.124;2022-07-29T08:41:25;21.20;99.90
5631;DHT22;2837;50.990;7.124;2022-07-29T08:43:51;21.20;99.90
5631;DHT22;2837;50.990;7.124;2022-07-29T08:46:19;21.20;99.90
5631;DHT22;2837;50.990;7.124;2022-07-29T08:48:44;21.20;99.90
5631;DHT22;2837;50.990;7.124;2022-07-29T08:51:29;21.20;99.90
5631;DHT22;2837;50.990;7.124;2022-07-29T08:53:55;21.20;99.90
5631;DHT22;2837;50.990;7.124;2022-07-29T08:56:22;21.20;99.90
5631;DHT22;2837;50.990;7.124;2022-07-29T08:58:48;21.20;99.90
5631;DHT22;2837;50.990;7.124;2022-07-29T09:01:17;21.20;99.90
5631;DHT22;2837;50.990;7.124;2022-07-29T09:03:44;21.20;99.90
5631;DHT22;2837;50.990;7.124;2022-07-29T09:06:14;21.20;99.90
5631;DHT22;2837;50.990;7.124;2022-07-29T09:08:40;21.20;99.90
5631;DHT22;2837;50.990;7.124;2022-07-29T09:11:06;21.20;99.90
5631;DHT22;2837;50.990;7.124;2022-07-29T09:13:33;21.20;99.90
5631;DHT22;2837;50.990;7.124;2022-07-29T09:15:59;21.20;99.90
5631;DHT22;2837;50.990;7.124;2022-07-29T09:18:39;21.20;99.90
5631;DHT22;2837;50.990;7.124;2022-07-29T09:21:07;21.20;99.90
5631;DHT22;2837;50.990;7.124;2022-07-29T09:26:35;21.30;99.90
5631;DHT22;2837;50.990;7.124;2022-07-29T09:29:17;21.30;99.90
5631;DHT22;2837;50.990;7.124;2022-07-29T09:31:46;21.30;99.90
5631;DHT22;2837;50.990;7.124;2022-07-29T09:34:13;21.30;99.90
5631;DHT22;2837;50.990;7.124;2022-07-29T09:36:47;21.30;99.90
5631;DHT22;2837;50.990;7.124;2022-07-29T09:39:15;21.40;99.90
5631;DHT22;2837;50.990;7.124;2022-07-29T09:41:52;21.30;99.90
5631;DHT22;2837;50.990;7.124;2022-07-29T09:44:24;21.30;99.90
5631;DHT22;2837;50.990;7.124;2022-07-29T09:47:00;21.40;99.90
5631;DHT22;2837;50.990;7.124;2022-07-29T09:49:49;21.40;99.90
5631;DHT22;2837;50.990;7.124;2022-07-29T09:52:15;21.40;99.90
5631;DHT22;2837;50.990;7.124;2022-07-29T09:54:41;21.40;99.90
5631;DHT22;2837;50.990;7.124;2022-07-29T09:57:09;21.40;99.90
5631;DHT22;2837;50.990;7.124;2022-07-29T09:59:57;21.40;99.90
5631;DHT22;2837;50.990;7.124;2022-07-29T10:02:27;21.50;99.90
5631;DHT22;2837;50.990;7.124;2022-07-29T10:04:53;21.50;99.90
5631;DHT22;2837;50.990;7.124;2022-07-29T10:07:19;21.50;99.90
5631;DHT22;2837;50.990;7.124;2022-07-29T10:09:55;21.50;99.90
5631;DHT22;2837;50.990;7.124;2022-07-29T10:12:22;21.50;99.90
5631;DHT22;2837;50.990;7.124;2022-07-29T10:14:49;21.60;99.90
5631;DHT22;2837;50.990;7.124;2022-07-29T10:17:16;21.60;99.90
5631;DHT22;2837;50.990;7.124;2022-07-29T10:19:42;21.60;99.90
5631;DHT22;2837;50.990;7.124;2022-07-29T10:22:09;21.60;99.90
5631;DHT22;2837;50.990;7.124;2022-07-29T10:24:36;21.60;99.90
5631;DHT22;2837;50.990;7.124;2022-07-29T10:27:06;21.60;99.90
5631;DHT22;2837;50.990;7.124;2022-07-29T10:29:32;21.60;99.90
5631;DHT22;2837;50.990;7.124;2022-07-29T10:32:09;21.70;99.90
5631;DHT22;2837;50.990;7.124;2022-07-29T10:43:24;21.70;99.90
5631;DHT22;2837;50.990;7.124;2022-07-29T10:45:57;21.70;99.90
5631;DHT22;2837;50.990;7.124;2022-07-29T10:48:23;21.70;99.90
5631;DHT22;2837;50.990;7.124;2022-07-29T10:53:22;21.70;99.90
5631;DHT22;2837;50.990;7.124;2022-07-29T10:55:49;21.80;99.90
5631;DHT22;2837;50.990;7.124;2022-07-29T10:58:21;21.80;99.90
5631;DHT22;2837;50.990;7.124;2022-07-29T11:00:49;21.80;99.90
5631;DHT22;2837;50.990;7.124;2022-07-29T11:03:47;21.70;99.90
5631;DHT22;2837;50.990;7.124;2022-07-29T11:06:13;21.80;99.90
5631;DHT22;2837;50.990;7.124;2022-07-29T11:08:39;21.80;99.90
5631;DHT22;2837;50.990;7.124;2022-07-29T11:13:50;21.80;99.90
5631;DHT22;2837;50.990;7.124;2022-07-29T11:16:17;21.80;99.90
5631;DHT22;2837;50.990;7.124;2022-07-29T11:21:38;21.80;99.90
5631;DHT22;2837;50.990;7.124;2022-07-29T11:24:26;21.80;99.90
5631;DHT22;2837;50.990;7.124;2022-07-29T11:29:48;21.80;99.90
5631;DHT22;2837;50.990;7.124;2022-07-29T11:32:15;21.80;99.90
5631;DHT22;2837;50.990;7.124;2022-07-29T11:34:43;21.80;99.90
5631;DHT22;2837;50.990;7.124;2022-07-29T11:40:09;21.80;99.90
5631;DHT22;2837;50.990;7.124;2022-07-29T11:45:03;21.90;99.90
5631;DHT22;2837;50.990;7.124;2022-07-29T11:47:41;21.80;99.90
5631;DHT22;2837;50.990;7.124;2022-07-29T11:50:12;21.80;99.90
5631;DHT22;2837;50.990;7.124;2022-07-29T11:52:42;21.90;99.90
5631;DHT22;2837;50.990;7.124;2022-07-29T11:55:12;21.80;99.90
5631;DHT22;2837;50.990;7.124;2022-07-29T11:57:48;21.80;99.90
5631;DHT22;2837;50.990;7.124;2022-07-29T12:00:26;21.80;99.90
5631;DHT22;2837;50.990;7.124;2022-07-29T12:02:52;21.80;99.90
5631;DHT22;2837;50.990;7.124;2022-07-29T12:05:19;21.80;99.90
5631;DHT22;2837;50.990;7.124;2022-07-29T12:07:45;21.80;99.90
5631;DHT22;2837;50.990;7.124;2022-07-29T12:10:11;21.80;99.90
5631;DHT22;2837;50.990;7.124;2022-07-29T12:12:37;21.90;99.90
5631;DHT22;2837;50.990;7.124;2022-07-29T12:15:17;21.90;99.90
5631;DHT22;2837;50.990;7.124;2022-07-29T12:17:46;21.90;99.90
5631;DHT22;2837;50.990;7.124;2022-07-29T12:20:12;21.90;99.90
5631;DHT22;2837;50.990;7.124;2022-07-29T12:22:40;21.90;99.90
5631;DHT22;2837;50.990;7.124;2022-07-29T12:25:07;21.90;99.90
5631;DHT22;2837;50.990;7.124;2022-07-29T12:27:33;21.90;99.90
5631;DHT22;2837;50.990;7.124;2022-07-29T12:30:05;21.90;99.90
5631;DHT22;2837;50.990;7.124;2022-07-29T12:32:36;21.90;99.90
5631;DHT22;2837;50.990;7.124;2022-07-29T12:35:10;22.00;99.90
5631;DHT22;2837;50.990;7.124;2022-07-29T12:37:38;22.00;99.90
5631;DHT22;2837;50.990;7.124;2022-07-29T12:40:05;22.00;99.90
5631;DHT22;2837;50.990;7.124;2022-07-29T12:42:32;22.00;99.90
5631;DHT22;2837;50.990;7.124;2022-07-29T12:44:58;22.00;99.90
5631;DHT22;2837;50.990;7.124;2022-07-29T12:47:24;22.00;99.90
5631;DHT22;2837;50.990;7.124;2022-07-29T12:50:08;22.00;99.90
5631;DHT22;2837;50.990;7.124;2022-07-29T12:52:35;22.00;99.90
5631;DHT22;2837;50.990;7.124;2022-07-29T12:55:01;22.00;99.90
5631;DHT22;2837;50.990;7.124;2022-07-29T12:57:27;22.00;99.90
5631;DHT22;2837;50.990;7.124;2022-07-29T13:00:07;22.00;99.90
5631;DHT22;2837;50.990;7.124;2022-07-29T13:02:34;22.00;99.90
5631;DHT22;2837;50.990;7.124;2022-07-29T13:05:00;22.00;99.90
5631;DHT22;2837;50.990;7.124;2022-07-29T13:07:29;22.00;99.90
5631;DHT22;2837;50.990;7.124;2022-07-29T13:13:03;22.00;99.90
5631;DHT22;2837;50.990;7.124;2022-07-29T13:15:29;22.00;99.90
5631;DHT22;2837;50.990;7.124;2022-07-29T13:17:55;22.00;99.90
5631;DHT22;2837;50.990;7.124;2022-07-29T13:20:24;22.10;99.90
5631;DHT22;2837;50.990;7.124;2022-07-29T13:22:50;22.00;99.90
5631;DHT22;2837;50.990;7.124;2022-07-29T13:25:24;22.10;99.90
5631;DHT22;2837;50.990;7.124;2022-07-29T13:27:49;22.10;99.90
5631;DHT22;2837;50.990;7.124;2022-07-29T13:30:15;22.10;99.90
5631;DHT22;2837;50.990;7.124;2022-07-29T13:32:41;22.10;99.90
5631;DHT22;2837;50.990;7.124;2022-07-29T13:35:08;22.10;99.90
5631;DHT22;2837;50.990;7.124;2022-07-29T13:37:35;22.10;99.90
5631;DHT22;2837;50.990;7.124;2022-07-29T13:40:04;22.10;99.90
5631;DHT22;2837;50.990;7.124;2022-07-29T13:42:30;22.10;99.90
5631;DHT22;2837;50.990;7.124;2022-07-29T13:44:57;22.20;99.90
5631;DHT22;2837;50.990;7.124;2022-07-29T13:47:23;22.20;99.90
5631;DHT22;2837;50.990;7.124;2022-07-29T13:49:49;22.20;99.90
5631;DHT22;2837;50.990;7.124;2022-07-29T13:52:14;22.20;99.90
5631;DHT22;2837;50.990;7.124;2022-07-29T13:54:41;22.20;99.90
5631;DHT22;2837;50.990;7.124;2022-07-29T13:57:07;22.20;99.90
5631;DHT22;2837;50.990;7.124;2022-07-29T13:59:33;22.20;99.90
5631;DHT22;2837;50.990;7.124;2022-07-29T14:01:59;22.20;99.90
5631;DHT22;2837;50.990;7.124;2022-07-29T14:04:25;22.20;99.90
5631;DHT22;2837;50.990;7.124;2022-07-29T14:06:50;22.20;99.90
5631;DHT22;2837;50.990;7.124;2022-07-29T14:09:16;22.20;99.90
5631;DHT22;2837;50.990;7.124;2022-07-29T14:11:42;22.20;99.90
5631;DHT22;2837;50.990;7.124;2022-07-29T14:14:07;22.20;99.90
5631;DHT22;2837;50.990;7.124;2022-07-29T14:16:33;22.20;99.90
5631;DHT22;2837;50.990;7.124;2022-07-29T14:18:59;22.30;99.90
5631;DHT22;2837;50.990;7.124;2022-07-29T14:21:25;22.30;99.90
5631;DHT22;2837;50.990;7.124;2022-07-29T14:23:50;22.30;99.90
5631;DHT22;2837;50.990;7.124;2022-07-29T14:26:17;22.30;99.90
5631;DHT22;2837;50.990;7.124;2022-07-29T14:28:43;22.40;99.90
5631;DHT22;2837;50.990;7.124;2022-07-29T14:31:09;22.40;99.90
5631;DHT22;2837;50.990;7.124;2022-07-29T14:33:34;22.40;99.90
5631;DHT22;2837;50.990;7.124;2022-07-29T14:36:00;22.50;99.90
5631;DHT22;2837;50.990;7.124;2022-07-29T14:38:25;22.50;99.90
5631;DHT22;2837;50.990;7.124;2022-07-29T14:40:51;22.50;99.90
5631;DHT22;2837;50.990;7.124;2022-07-29T14:43:17;22.40;99.90
5631;DHT22;2837;50.990;7.124;2022-07-29T14:45:42;22.40;99.90
5631;DHT22;2837;50.990;7.124;2022-07-29T14:48:08;22.40;99.90
5631;DHT22;2837;50.990;7.124;2022-07-29T14:50:33;22.40;99.90
5631;DHT22;2837;50.990;7.124;2022-07-29T14:53:00;22.40;99.90
5631;DHT22;2837;50.990;7.124;2022-07-29T14:55:26;22.40;99.90
5631;DHT22;2837;50.990;7.124;2022-07-29T14:57:52;22.40;99.90
5631;DHT22;2837;50.990;7.124;2022-07-29T15:00:18;22.30;99.90
5631;DHT22;2837;50.990;7.124;2022-07-29T15:02:44;22.40;99.90
5631;DHT22;2837;50.990;7.124;2022-07-29T15:05:10;22.50;99.90
5631;DHT22;2837;50.990;7.124;2022-07-29T15:07:35;22.50;99.90
5631;DHT22;2837;50.990;7.124;2022-07-29T15:10:02;22.50;99.90
5631;DHT22;2837;50.990;7.124;2022-07-29T15:12:30;22.50;99.90
5631;DHT22;2837;50.990;7.124;2022-07-29T15:14:55;22.50;99.90
5631;DHT22;2837;50.990;7.124;2022-07-29T15:17:21;22.60;99.90
5631;DHT22;2837;50.990;7.124;2022-07-29T15:19:47;22.60;99.90
5631;DHT22;2837;50.990;7.124;2022-07-29T15:22:12;22.50;99.90
5631;DHT22;2837;50.990;7.124;2022-07-29T15:24:38;22.50;99.90
5631;DHT22;2837;50.990;7.124;2022-07-29T15:27:04;22.50;99.90
5631;DHT22;2837;50.990;7.124;2022-07-29T15:29:30;22.50;99.90
5631;DHT22;2837;50.990;7.124;2022-07-29T15:31:55;22.50;99.90
5631;DHT22;2837;50.990;7.124;2022-07-29T15:34:21;22.50;99.90
5631;DHT22;2837;50.990;7.124;2022-07-29T15:36:49;22.50;99.90
5631;DHT22;2837;50.990;7.124;2022-07-29T15:39:15;22.50;99.90
5631;DHT22;2837;50.990;7.124;2022-07-29T15:41:41;22.50;99.90
5631;DHT22;2837;50.990;7.124;2022-07-29T15:44:06;22.50;99.90
5631;DHT22;2837;50.990;7.124;2022-07-29T15:46:32;22.50;99.90
5631;DHT22;2837;50.990;7.124;2022-07-29T15:49:16;22.50;99.90
5631;DHT22;2837;50.990;7.124;2022-07-29T15:51:42;22.60;99.90
5631;DHT22;2837;50.990;7.124;2022-07-29T15:54:07;22.50;99.90
5631;DHT22;2837;50.990;7.124;2022-07-29T15:56:34;22.60;99.90
5631;DHT22;2837;50.990;7.124;2022-07-29T15:59:00;22.50;99.90
5631;DHT22;2837;50.990;7.124;2022-07-29T16:01:25;22.60;99.90
5631;DHT22;2837;50.990;7.124;2022-07-29T16:03:51;22.60;99.90
5631;DHT22;2837;50.990;7.124;2022-07-29T16:06:17;22.60;99.90
5631;DHT22;2837;50.990;7.124;2022-07-29T16:08:43;22.60;99.90
5631;DHT22;2837;50.990;7.124;2022-07-29T16:11:09;22.60;99.90
5631;DHT22;2837;50.990;7.124;2022-07-29T16:13:34;22.60;99.90
5631;DHT22;2837;50.990;7.124;2022-07-29T16:16:00;22.60;99.90
5631;DHT22;2837;50.990;7.124;2022-07-29T16:18:25;22.50;99.90
5631;DHT22;2837;50.990;7.124;2022-07-29T16:20:51;22.60;99.90
5631;DHT22;2837;50.990;7.124;2022-07-29T16:23:17;22.60;99.90
5631;DHT22;2837;50.990;7.124;2022-07-29T16:25:42;22.60;99.90
5631;DHT22;2837;50.990;7.124;2022-07-29T16:28:09;22.60;99.90
5631;DHT22;2837;50.990;7.124;2022-07-29T16:30:34;22.60;99.90
5631;DHT22;2837;50.990;7.124;2022-07-29T16:33:01;22.60;99.90
5631;DHT22;2837;50.990;7.124;2022-07-29T16:35:26;22.60;99.90
5631;DHT22;2837;50.990;7.124;2022-07-29T16:37:52;22.70;99.90
5631;DHT22;2837;50.990;7.124;2022-07-29T16:40:18;22.70;99.90
5631;DHT22;2837;50.990;7.124;2022-07-29T16:42:43;22.70;99.90
5631;DHT22;2837;50.990;7.124;2022-07-29T16:45:09;22.70;99.90
5631;DHT22;2837;50.990;7.124;2022-07-29T16:47:34;22.60;99.90
5631;DHT22;2837;50.990;7.124;2022-07-29T16:50:00;22.60;99.90
5631;DHT22;2837;50.990;7.124;2022-07-29T16:52:26;22.70;99.90
5631;DHT22;2837;50.990;7.124;2022-07-29T16:54:51;22.60;99.90
5631;DHT22;2837;50.990;7.124;2022-07-29T16:57:17;22.60;99.90
5631;DHT22;2837;50.990;7.124;2022-07-29T16:59:42;22.60;99.90
5631;DHT22;2837;50.990;7.124;2022-07-29T17:02:08;22.50;99.90
5631;DHT22;2837;50.990;7.124;2022-07-29T17:04:36;22.60;99.90
5631;DHT22;2837;50.990;7.124;2022-07-29T17:07:01;22.50;99.90
5631;DHT22;2837;50.990;7.124;2022-07-29T17:09:27;22.50;99.90
5631;DHT22;2837;50.990;7.124;2022-07-29T17:11:52;22.50;99.90
5631;DHT22;2837;50.990;7.124;2022-07-29T17:14:19;22.40;99.90
5631;DHT22;2837;50.990;7.124;2022-07-29T17:16:45;22.50;99.90
5631;DHT22;2837;50.990;7.124;2022-07-29T17:19:10;22.40;99.90
5631;DHT22;2837;50.990;7.124;2022-07-29T17:21:36;22.50;99.90
5631;DHT22;2837;50.990;7.124;2022-07-29T17:24:02;22.40;99.90
5631;DHT22;2837;50.990;7.124;2022-07-29T17:26:27;22.40;99.90
5631;DHT22;2837;50.990;7.124;2022-07-29T17:28:53;22.40;99.90
5631;DHT22;2837;50.990;7.124;2022-07-29T17:31:19;22.40;99.90
5631;DHT22;2837;50.990;7.124;2022-07-29T17:33:44;22.40;99.90
5631;DHT22;2837;50.990;7.124;2022-07-29T17:36:10;22.40;99.90
5631;DHT22;2837;50.990;7.124;2022-07-29T17:38:48;22.40;99.90
5631;DHT22;2837;50.990;7.124;2022-07-29T17:41:14;22.40;99.90
5631;DHT22;2837;50.990;7.124;2022-07-29T17:43:39;22.40;99.90
5631;DHT22;2837;50.990;7.124;2022-07-29T17:46:06;22.40;99.90
5631;DHT22;2837;50.990;7.124;2022-07-29T17:48:33;22.40;99.90
5631;DHT22;2837;50.990;7.124;2022-07-29T17:50:59;22.40;99.90
5631;DHT22;2837;50.990;7.124;2022-07-29T17:53:25;22.40;99.90
5631;DHT22;2837;50.990;7.124;2022-07-29T17:55:50;22.40;99.90
5631;DHT22;2837;50.990;7.124;2022-07-29T17:58:16;22.40;99.90
5631;DHT22;2837;50.990;7.124;2022-07-29T18:00:42;22.40;99.90
5631;DHT22;2837;50.990;7.124;2022-07-29T18:03:07;22.40;99.90
5631;DHT22;2837;50.990;7.124;2022-07-29T18:05:33;22.40;99.90
5631;DHT22;2837;50.990;7.124;2022-07-29T18:07:59;22.40;99.90
5631;DHT22;2837;50.990;7.124;2022-07-29T18:10:25;22.40;99.90
5631;DHT22;2837;50.990;7.124;2022-07-29T18:12:50;22.40;99.90
5631;DHT22;2837;50.990;7.124;2022-07-29T18:15:16;22.40;99.90
5631;DHT22;2837;50.990;7.124;2022-07-29T18:17:42;22.40;99.90
5631;DHT22;2837;50.990;7.124;2022-07-29T18:20:08;22.30;99.90
5631;DHT22;2837;50.990;7.124;2022-07-29T18:22:34;22.30;99.90
5631;DHT22;2837;50.990;7.124;2022-07-29T18:25:01;22.30;99.90
5631;DHT22;2837;50.990;7.124;2022-07-29T18:27:26;22.30;99.90
5631;DHT22;2837;50.990;7.124;2022-07-29T18:29:52;22.30;99.90
5631;DHT22;2837;50.990;7.124;2022-07-29T18:32:18;22.30;99.90
5631;DHT22;2837;50.990;7.124;2022-07-29T18:34:44;22.30;99.90
5631;DHT22;2837;50.990;7.124;2022-07-29T18:37:10;22.30;99.90
5631;DHT22;2837;50.990;7.124;2022-07-29T18:39:35;22.20;99.90
5631;DHT22;2837;50.990;7.124;2022-07-29T18:42:01;22.20;99.90
5631;DHT22;2837;50.990;7.124;2022-07-29T18:44:26;22.20;99.90
5631;DHT22;2837;50.990;7.124;2022-07-29T18:46:52;22.20;99.90
5631;DHT22;2837;50.990;7.124;2022-07-29T18:49:20;22.20;99.90
5631;DHT22;2837;50.990;7.124;2022-07-29T18:51:47;22.20;99.90
5631;DHT22;2837;50.990;7.124;2022-07-29T18:54:12;22.10;99.90
5631;DHT22;2837;50.990;7.124;2022-07-29T18:56:38;22.10;99.90
5631;DHT22;2837;50.990;7.124;2022-07-29T18:59:04;22.00;99.90
5631;DHT22;2837;50.990;7.124;2022-07-29T19:01:29;22.00;99.90
5631;DHT22;2837;50.990;7.124;2022-07-29T19:03:55;22.00;99.90
5631;DHT22;2837;50.990;7.124;2022-07-29T19:06:20;22.00;99.90
5631;DHT22;2837;50.990;7.124;2022-07-29T19:08:46;22.00;99.90
5631;DHT22;2837;50.990;7.124;2022-07-29T19:11:11;22.00;99.90
5631;DHT22;2837;50.990;7.124;2022-07-29T19:13:38;22.00;99.90
5631;DHT22;2837;50.990;7.124;2022-07-29T19:16:04;21.90;99.90
5631;DHT22;2837;50.990;7.124;2022-07-29T19:18:30;21.90;99.90
5631;DHT22;2837;50.990;7.124;2022-07-29T19:20:56;21.90;99.90
5631;DHT22;2837;50.990;7.124;2022-07-29T19:23:21;21.90;99.90
5631;DHT22;2837;50.990;7.124;2022-07-29T19:25:47;21.90;99.90
5631;DHT22;2837;50.990;7.124;2022-07-29T19:28:12;21.90;99.90
5631;DHT22;2837;50.990;7.124;2022-07-29T19:30:38;21.80;99.90
5631;DHT22;2837;50.990;7.124;2022-07-29T19:33:04;21.80;99.90
5631;DHT22;2837;50.990;7.124;2022-07-29T19:35:30;21.80;99.90
5631;DHT22;2837;50.990;7.124;2022-07-29T19:37:57;21.80;99.90
5631;DHT22;2837;50.990;7.124;2022-07-29T19:40:24;21.80;99.90
5631;DHT22;2837;50.990;7.124;2022-07-29T19:42:51;21.70;99.90
5631;DHT22;2837;50.990;7.124;2022-07-29T19:45:18;21.70;99.90
5631;DHT22;2837;50.990;7.124;2022-07-29T19:47:44;21.70;99.90
5631;DHT22;2837;50.990;7.124;2022-07-29T19:50:10;21.70;99.90
5631;DHT22;2837;50.990;7.124;2022-07-29T19:52:36;21.60;99.90
5631;DHT22;2837;50.990;7.124;2022-07-29T19:55:03;21.60;99.90
5631;DHT22;2837;50.990;7.124;2022-07-29T19:57:29;21.60;99.90
5631;DHT22;2837;50.990;7.124;2022-07-29T19:59:55;21.50;99.90
5631;DHT22;2837;50.990;7.124;2022-07-29T20:02:20;21.50;99.90
5631;DHT22;2837;50.990;7.124;2022-07-29T20:04:46;21.50;99.90
5631;DHT22;2837;50.990;7.124;2022-07-29T20:07:12;21.50;99.90
5631;DHT22;2837;50.990;7.124;2022-07-29T20:09:38;21.40;99.90
5631;DHT22;2837;50.990;7.124;2022-07-29T20:12:08;21.40;99.90
5631;DHT22;2837;50.990;7.124;2022-07-29T20:14:34;21.40;99.90
5631;DHT22;2837;50.990;7.124;2022-07-29T20:17:00;21.40;99.90
5631;DHT22;2837;50.990;7.124;2022-07-29T20:19:26;21.30;99.90
5631;DHT22;2837;50.990;7.124;2022-07-29T20:21:52;21.30;99.90
5631;DHT22;2837;50.990;7.124;2022-07-29T20:24:19;21.30;99.90
5631;DHT22;2837;50.990;7.124;2022-07-29T20:26:46;21.30;99.90
5631;DHT22;2837;50.990;7.124;2022-07-29T20:29:11;21.30;99.90
5631;DHT22;2837;50.990;7.124;2022-07-29T20:31:37;21.20;99.90
5631;DHT22;2837;50.990;7.124;2022-07-29T20:34:03;21.20;99.90
5631;DHT22;2837;50.990;7.124;2022-07-29T20:36:28;21.20;99.90
5631;DHT22;2837;50.990;7.124;2022-07-29T20:38:54;21.20;99.90
5631;DHT22;2837;50.990;7.124;2022-07-29T20:41:20;21.20;99.90
5631;DHT22;2837;50.990;7.124;2022-07-29T20:43:45;21.20;99.90
5631;DHT22;2837;50.990;7.124;2022-07-29T20:46:12;21.10;99.90
5631;DHT22;2837;50.990;7.124;2022-07-29T20:48:38;21.10;99.90
5631;DHT22;2837;50.990;7.124;2022-07-29T20:51:05;21.10;99.90
5631;DHT22;2837;50.990;7.124;2022-07-29T20:53:30;21.10;99.90
5631;DHT22;2837;50.990;7.124;2022-07-29T20:55:57;21.10;99.90
5631;DHT22;2837;50.990;7.124;2022-07-29T20:58:22;21.00;99.90
